createdAt,value
2022-09-04T00:00:46.657Z,52.68
2022-09-04T00:01:46.642Z,46.72
2022-09-04T00:02:46.647Z,54.02
2022-09-04T00:03:46.790Z,54.08
2022-09-04T00:04:46.798Z,48.81
2022-09-04T00:05:46.617Z,47.93
2022-09-04T00:06:46.621Z,46.26
2022-09-04T00:07:49.233Z,48.63
2022-09-04T00:08:46.610Z,52.48
2022-09-04T00:09:46.586Z,52.70
2022-09-04T00:10:46.586Z,54.03
2022-09-04T00:11:46.582Z,58.51
2022-09-04T00:12:46.562Z,47.30
2022-09-04T00:13:46.555Z,45.14
2022-09-04T00:14:46.548Z,52.76
2022-09-04T00:15:46.537Z,50.08
2022-09-04T00:16:46.591Z,50.36
2022-09-04T00:17:46.559Z,49.03
2022-09-04T00:18:46.537Z,55.99
2022-09-04T00:19:46.565Z,52.39
2022-09-04T00:20:46.508Z,53.48
2022-09-04T00:21:46.547Z,51.56
2022-09-04T00:22:46.604Z,54.75
2022-09-04T00:23:46.527Z,49.63
2022-09-04T00:24:46.540Z,47.31
2022-09-04T00:25:46.454Z,51.39
2022-09-04T00:26:46.449Z,57.44
2022-09-04T00:27:46.447Z,52.19
2022-09-04T00:28:46.437Z,56.83
2022-09-04T00:29:46.421Z,52.05
2022-09-04T00:32:46.564Z,56.53
2022-09-04T00:33:46.559Z,52.16
2022-09-04T00:34:46.556Z,53.88
2022-09-04T00:35:46.544Z,49.57
2022-09-04T00:36:50.084Z,48.42
2022-09-04T00:37:46.534Z,46.43
2022-09-04T00:38:46.519Z,48.80
2022-09-04T00:39:46.576Z,44.66
2022-09-04T00:40:47.401Z,45.46
2022-09-04T00:41:46.491Z,46.77
2022-09-04T00:42:46.486Z,50.88
2022-09-04T00:43:46.478Z,53.90
2022-09-04T00:44:46.471Z,50.75
2022-09-04T00:45:46.542Z,57.10
2022-09-04T00:46:46.449Z,57.31
2022-09-04T00:47:46.438Z,56.74
2022-09-04T00:48:46.434Z,42.51
2022-09-04T00:49:46.422Z,53.52
2022-09-04T00:50:46.435Z,44.68
2022-09-04T00:51:46.415Z,49.59
2022-09-04T00:52:46.399Z,54.62
2022-09-04T00:53:47.491Z,45.94
2022-09-04T00:54:47.480Z,47.50
2022-09-04T00:55:47.476Z,51.47
2022-09-04T00:56:47.458Z,49.45
2022-09-04T00:57:47.463Z,52.95
2022-09-04T00:58:47.459Z,53.81
2022-09-04T00:59:47.437Z,46.35
2022-09-04T01:00:47.529Z,52.71
2022-09-04T01:01:47.531Z,48.41
2022-09-04T01:02:47.417Z,47.51
2022-09-04T01:03:48.412Z,50.38
2022-09-04T01:04:47.400Z,51.90
2022-09-04T01:05:47.396Z,51.62
2022-09-04T01:06:47.387Z,50.41
2022-09-04T01:07:47.379Z,54.65
2022-09-04T01:08:47.372Z,46.32
2022-09-04T01:09:47.354Z,55.63
2022-09-04T01:10:47.344Z,40.66
2022-09-04T01:11:47.338Z,41.37
2022-09-04T01:12:47.331Z,46.78
2022-09-04T01:13:47.331Z,40.05
2022-09-04T01:14:49.082Z,39.91
2022-09-04T01:15:48.320Z,46.80
2022-09-04T01:16:47.324Z,58.01
2022-09-04T01:17:47.286Z,49.23
2022-09-04T01:18:47.295Z,47.23
2022-09-04T01:19:47.354Z,50.72
2022-09-04T01:20:47.280Z,45.45
2022-09-04T01:21:47.254Z,51.38
2022-09-04T01:22:47.252Z,46.54
2022-09-04T01:23:47.254Z,41.85
2022-09-04T01:24:47.238Z,54.67
2022-09-04T01:25:47.233Z,50.91
2022-09-04T01:26:47.214Z,50.64
2022-09-04T01:27:47.221Z,51.06
2022-09-04T01:28:47.198Z,51.78
2022-09-04T01:29:47.192Z,52.30
2022-09-04T01:30:47.192Z,53.56
2022-09-04T01:31:47.216Z,59.26
2022-09-04T01:32:47.169Z,52.60
2022-09-04T01:33:48.160Z,52.13
2022-09-04T01:34:47.156Z,54.14
2022-09-04T01:35:47.147Z,39.90
2022-09-04T01:36:47.133Z,42.67
2022-09-04T01:37:47.142Z,41.85
2022-09-04T01:38:47.120Z,47.81
2022-09-04T01:39:47.178Z,46.04
2022-09-04T01:40:47.112Z,41.04
2022-09-04T01:41:47.096Z,43.22
2022-09-04T01:42:47.098Z,46.25
2022-09-04T01:43:47.078Z,47.61
2022-09-04T01:44:47.081Z,40.21
2022-09-04T01:45:47.113Z,42.63
2022-09-04T01:46:47.061Z,47.08
2022-09-04T01:47:47.066Z,49.48
2022-09-04T01:48:47.059Z,52.50
2022-09-04T01:49:47.037Z,52.19
2022-09-04T01:50:47.019Z,41.10
2022-09-04T01:51:47.012Z,50.60
2022-09-04T01:52:47.010Z,55.26
2022-09-04T01:53:47.004Z,52.31
2022-09-04T01:54:46.996Z,51.06
2022-09-04T01:55:46.982Z,44.52
2022-09-04T01:56:46.974Z,50.73
2022-09-04T01:57:46.979Z,41.68
2022-09-04T01:58:47.466Z,52.42
2022-09-04T01:59:49.699Z,54.22
2022-09-04T02:00:47.393Z,41.36
2022-09-04T02:01:46.990Z,49.96
2022-09-04T02:02:46.930Z,55.96
2022-09-04T02:03:47.923Z,45.79
2022-09-04T02:04:46.903Z,46.23
2022-09-04T02:05:46.910Z,41.93
2022-09-04T02:06:46.923Z,42.45
2022-09-04T02:07:46.891Z,43.91
2022-09-04T02:08:46.889Z,45.72
2022-09-04T02:09:47.549Z,42.09
2022-09-04T02:10:46.893Z,42.46
2022-09-04T02:11:46.849Z,54.67
2022-09-04T02:12:46.841Z,47.02
2022-09-04T02:13:46.850Z,55.15
2022-09-04T02:14:46.828Z,47.57
2022-09-04T02:15:46.835Z,55.32
2022-09-04T02:16:46.869Z,48.36
2022-09-04T02:17:46.813Z,40.98
2022-09-04T02:18:46.798Z,50.02
2022-09-04T02:19:46.792Z,48.01
2022-09-04T02:20:46.794Z,53.68
2022-09-04T02:21:46.791Z,52.43
2022-09-04T02:22:46.764Z,52.39
2022-09-04T02:23:46.762Z,48.48
2022-09-04T02:24:46.746Z,55.34
2022-09-04T02:25:46.743Z,47.92
2022-09-04T02:26:46.736Z,49.14
2022-09-04T02:27:46.735Z,45.24
2022-09-04T02:28:46.718Z,43.87
2022-09-04T02:29:46.717Z,52.42
2022-09-04T02:30:46.713Z,51.01
2022-09-04T02:31:47.800Z,39.96
2022-09-04T02:32:46.685Z,46.48
2022-09-04T02:33:46.679Z,51.67
2022-09-04T02:34:46.667Z,48.55
2022-09-04T02:35:46.672Z,44.49
2022-09-04T02:36:46.655Z,48.20
2022-09-04T02:37:46.656Z,44.15
2022-09-04T02:38:46.636Z,45.35
2022-09-04T02:39:46.675Z,47.38
2022-09-04T02:40:46.635Z,55.99
2022-09-04T02:41:46.630Z,51.31
2022-09-04T02:42:46.605Z,48.70
2022-09-04T02:43:46.596Z,39.91
2022-09-04T02:44:46.586Z,50.68
2022-09-04T02:45:46.582Z,54.18
2022-09-04T02:46:46.618Z,39.92
2022-09-04T02:47:46.564Z,43.84
2022-09-04T02:48:46.586Z,45.64
2022-09-04T02:49:46.546Z,53.49
2022-09-04T02:50:47.548Z,41.34
2022-09-04T02:51:46.543Z,48.07
2022-09-04T02:52:46.540Z,43.38
2022-09-04T02:53:46.529Z,42.08
2022-09-04T02:54:46.506Z,48.60
2022-09-04T02:55:46.500Z,42.62
2022-09-04T02:56:46.544Z,45.07
2022-09-04T02:57:46.482Z,41.96
2022-09-04T02:58:46.471Z,38.93
2022-09-04T02:59:46.462Z,43.26
2022-09-04T03:00:46.517Z,43.29
2022-09-04T03:01:49.787Z,42.70
2022-09-04T03:02:47.438Z,41.85
2022-09-04T03:03:46.433Z,43.95
2022-09-04T03:04:46.430Z,51.90
2022-09-04T03:05:46.413Z,45.58
2022-09-04T03:06:46.408Z,46.85
2022-09-04T03:07:46.462Z,47.80
2022-09-04T03:08:46.392Z,56.37
2022-09-04T03:09:46.381Z,52.95
2022-09-04T03:10:46.386Z,49.13
2022-09-04T03:11:46.372Z,50.18
2022-09-04T03:12:46.395Z,52.96
2022-09-04T03:13:46.625Z,52.69
2022-09-04T03:14:47.342Z,45.51
2022-09-04T03:15:46.340Z,54.00
2022-09-04T03:16:46.334Z,52.07
2022-09-04T03:17:46.329Z,47.70
2022-09-04T03:18:46.323Z,49.80
2022-09-04T03:19:46.316Z,50.72
2022-09-04T03:20:46.309Z,49.02
2022-09-04T03:21:46.292Z,47.69
2022-09-04T03:22:46.302Z,43.09
2022-09-04T03:23:46.271Z,48.78
2022-09-04T03:24:46.278Z,43.17
2022-09-04T03:25:46.251Z,50.65
2022-09-04T03:26:46.249Z,50.52
2022-09-04T03:27:46.249Z,50.84
2022-09-04T03:28:46.249Z,53.55
2022-09-04T03:29:46.223Z,49.66
2022-09-04T03:30:46.219Z,48.60
2022-09-04T03:31:46.296Z,55.66
2022-09-04T03:32:46.212Z,46.61
2022-09-04T03:33:46.186Z,46.15
2022-09-04T03:34:46.181Z,57.46
2022-09-04T03:35:46.171Z,49.08
2022-09-04T03:36:46.163Z,53.54
2022-09-04T03:37:46.175Z,52.42
2022-09-04T03:38:46.151Z,55.65
2022-09-04T03:39:46.178Z,54.32
2022-09-04T03:40:46.145Z,50.06
2022-09-04T03:41:46.121Z,54.27
2022-09-04T03:42:47.093Z,49.12
2022-09-04T03:43:46.113Z,53.20
2022-09-04T03:44:46.114Z,53.51
2022-09-04T03:45:46.090Z,52.38
2022-09-04T03:46:46.135Z,56.09
2022-09-04T03:47:46.088Z,51.43
2022-09-04T03:48:46.072Z,45.49
2022-09-04T03:49:46.092Z,58.21
2022-09-04T03:50:46.061Z,54.25
2022-09-04T03:51:46.067Z,44.88
2022-09-04T03:52:46.040Z,51.62
2022-09-04T03:53:46.027Z,42.43
2022-09-04T03:54:46.018Z,49.85
2022-09-04T03:55:46.014Z,40.52
2022-09-04T03:56:45.999Z,43.90
2022-09-04T03:57:46.001Z,44.40
2022-09-04T03:58:46.197Z,54.60
2022-09-04T03:59:45.972Z,56.94
2022-09-04T04:00:46.020Z,52.38
2022-09-04T04:01:45.964Z,60.82
2022-09-04T04:02:45.992Z,47.48
2022-09-04T04:03:45.936Z,53.45
2022-09-04T04:04:46.945Z,45.85
2022-09-04T04:05:48.276Z,50.18
2022-09-04T04:06:45.917Z,49.30
2022-09-04T04:07:45.907Z,57.10
2022-09-04T04:08:46.044Z,60.56
2022-09-04T04:09:45.905Z,51.81
2022-09-04T04:10:45.894Z,52.19
2022-09-04T04:11:45.875Z,47.25
2022-09-04T04:12:45.871Z,51.12
2022-09-04T04:13:45.862Z,49.20
2022-09-04T04:14:45.857Z,50.90
2022-09-04T04:15:45.867Z,53.44
2022-09-04T04:16:55.802Z,56.57
2022-09-04T04:17:46.822Z,48.63
2022-09-04T04:18:45.824Z,48.83
2022-09-04T04:19:45.807Z,56.88
2022-09-04T04:20:45.798Z,54.34
2022-09-04T04:21:45.815Z,55.14
2022-09-04T04:22:45.788Z,59.53
2022-09-04T04:23:45.776Z,51.41
2022-09-04T04:24:45.776Z,51.14
2022-09-04T04:25:46.261Z,54.54
2022-09-04T04:26:45.776Z,53.76
2022-09-04T04:27:45.748Z,48.25
2022-09-04T04:28:45.733Z,47.47
2022-09-04T04:29:45.734Z,56.06
2022-09-04T04:30:45.719Z,53.48
2022-09-04T04:31:46.616Z,59.36
2022-09-04T04:32:46.584Z,53.21
2022-09-04T04:33:45.710Z,52.51
2022-09-04T04:34:45.806Z,55.02
2022-09-04T04:35:45.677Z,53.02
2022-09-04T04:36:45.684Z,55.33
2022-09-04T04:37:45.669Z,48.60
2022-09-04T04:38:45.657Z,49.28
2022-09-04T04:39:45.717Z,55.84
2022-09-04T04:40:45.644Z,50.46
2022-09-04T04:41:45.638Z,51.81
2022-09-04T04:42:45.631Z,45.18
2022-09-04T04:43:45.622Z,53.38
2022-09-04T04:44:45.620Z,54.38
2022-09-04T04:45:45.617Z,57.02
2022-09-04T04:46:45.651Z,56.05
2022-09-04T04:47:45.594Z,53.93
2022-09-04T04:48:45.578Z,47.93
2022-09-04T04:49:45.588Z,53.65
2022-09-04T04:50:45.581Z,49.36
2022-09-04T04:51:45.558Z,50.49
2022-09-04T04:52:45.541Z,50.17
2022-09-04T04:53:45.537Z,45.31
2022-09-04T04:54:45.532Z,45.28
2022-09-04T04:55:45.531Z,53.74
2022-09-04T04:56:45.515Z,44.22
2022-09-04T04:57:45.528Z,50.54
2022-09-04T04:58:45.495Z,58.99
2022-09-04T04:59:45.490Z,54.07
2022-09-04T05:00:45.484Z,55.45
2022-09-04T05:01:45.566Z,54.89
2022-09-04T05:02:45.619Z,47.66
2022-09-04T05:03:45.457Z,54.04
2022-09-04T05:04:45.460Z,52.96
2022-09-04T05:05:45.444Z,49.59
2022-09-04T05:06:45.446Z,49.98
2022-09-04T05:07:45.435Z,54.26
2022-09-04T05:08:45.417Z,49.42
2022-09-04T05:09:45.413Z,50.21
2022-09-04T05:10:45.407Z,55.26
2022-09-04T05:11:45.465Z,58.58
2022-09-04T05:12:45.396Z,57.04
2022-09-04T05:13:45.374Z,49.42
2022-09-04T05:14:45.383Z,54.88
2022-09-04T05:16:05.437Z,48.01
2022-09-04T05:16:49.241Z,49.55
2022-09-04T05:17:45.348Z,51.76
2022-09-04T05:18:45.336Z,53.12
2022-09-04T05:19:45.343Z,44.51
2022-09-04T05:20:45.327Z,52.86
2022-09-04T05:21:45.307Z,45.43
2022-09-04T05:22:45.304Z,55.84
2022-09-04T05:23:45.292Z,56.25
2022-09-04T05:24:45.292Z,54.37
2022-09-04T05:25:45.281Z,47.27
2022-09-04T05:26:45.271Z,53.78
2022-09-04T05:27:45.264Z,53.71
2022-09-04T05:28:45.258Z,54.99
2022-09-04T05:29:45.252Z,50.99
2022-09-04T05:30:45.276Z,49.76
2022-09-04T05:31:45.236Z,44.25
2022-09-04T05:32:45.227Z,52.55
2022-09-04T05:33:45.215Z,41.34
2022-09-04T05:34:45.207Z,52.58
2022-09-04T05:35:45.208Z,54.79
2022-09-04T05:36:45.192Z,44.38
2022-09-04T05:37:45.184Z,56.03
2022-09-04T05:38:45.184Z,53.35
2022-09-04T05:39:45.209Z,56.06
2022-09-04T05:40:45.160Z,55.89
2022-09-04T05:41:45.149Z,49.34
2022-09-04T05:42:45.140Z,46.28
2022-09-04T05:43:45.140Z,46.91
2022-09-04T05:44:45.125Z,45.23
2022-09-04T05:45:45.125Z,49.14
2022-09-04T05:46:45.184Z,50.62
2022-09-04T05:47:45.099Z,48.82
2022-09-04T05:48:45.094Z,49.65
2022-09-04T05:49:45.090Z,48.60
2022-09-04T05:50:45.095Z,55.15
2022-09-04T05:51:45.099Z,54.36
2022-09-04T05:52:46.037Z,55.93
2022-09-04T05:53:45.059Z,53.97
2022-09-04T05:54:45.050Z,55.90
2022-09-04T05:55:45.048Z,54.27
2022-09-04T05:56:45.046Z,48.96
2022-09-04T05:57:45.028Z,57.07
2022-09-04T05:58:45.017Z,49.46
2022-09-04T05:59:45.006Z,48.81
2022-09-04T06:00:45.008Z,56.04
2022-09-04T06:01:48.544Z,55.60
2022-09-04T06:02:47.045Z,52.28
2022-09-04T06:03:44.977Z,48.65
2022-09-04T06:04:44.973Z,50.27
2022-09-04T06:05:44.959Z,57.30
2022-09-04T06:06:44.966Z,55.36
2022-09-04T06:07:44.944Z,57.71
2022-09-04T06:08:44.930Z,59.43
2022-09-04T06:09:44.925Z,54.92
2022-09-04T06:10:44.921Z,53.98
2022-09-04T06:11:44.911Z,53.43
2022-09-04T06:12:44.901Z,55.10
2022-09-04T06:13:44.891Z,55.65
2022-09-04T06:14:44.881Z,52.97
2022-09-04T06:15:44.925Z,45.55
2022-09-04T06:16:44.870Z,58.10
2022-09-04T06:17:44.871Z,46.70
2022-09-04T06:18:44.855Z,51.49
2022-09-04T06:19:44.851Z,56.24
2022-09-04T06:20:44.849Z,57.08
2022-09-04T06:21:44.832Z,59.62
2022-09-04T06:22:48.514Z,60.40
2022-09-04T06:23:44.813Z,51.08
2022-09-04T06:24:44.808Z,54.80
2022-09-04T06:25:44.809Z,53.26
2022-09-04T06:26:45.621Z,50.23
2022-09-04T06:27:44.783Z,56.29
2022-09-04T06:28:44.776Z,53.15
2022-09-04T06:29:44.763Z,53.52
2022-09-04T06:30:44.763Z,52.97
2022-09-04T06:31:44.746Z,50.65
2022-09-04T06:32:44.737Z,51.91
2022-09-04T06:33:44.743Z,50.61
2022-09-04T06:34:44.723Z,56.90
2022-09-04T06:35:45.620Z,46.83
2022-09-04T06:36:44.722Z,47.55
2022-09-04T06:37:44.705Z,53.68
2022-09-04T06:38:44.695Z,53.45
2022-09-04T06:39:44.739Z,57.55
2022-09-04T06:40:44.686Z,53.94
2022-09-04T06:41:44.682Z,54.02
2022-09-04T06:42:44.659Z,52.06
2022-09-04T06:43:44.652Z,51.89
2022-09-04T06:44:44.655Z,50.04
2022-09-04T06:45:44.646Z,51.86
2022-09-04T06:46:44.719Z,56.14
2022-09-04T06:47:44.625Z,50.79
2022-09-04T06:48:44.617Z,56.62
2022-09-04T06:49:44.613Z,57.65
2022-09-04T06:50:44.603Z,53.90
2022-09-04T06:51:44.589Z,53.39
2022-09-04T06:52:44.587Z,57.25
2022-09-04T06:53:44.574Z,56.34
2022-09-04T06:54:44.567Z,47.89
2022-09-04T06:55:44.563Z,51.68
2022-09-04T06:56:44.550Z,55.70
2022-09-04T06:57:44.546Z,54.97
2022-09-04T06:58:44.535Z,58.46
2022-09-04T06:59:44.524Z,55.13
2022-09-04T07:00:44.522Z,46.87
2022-09-04T07:01:44.657Z,58.45
2022-09-04T07:02:44.642Z,59.55
2022-09-04T07:03:44.492Z,64.77
2022-09-04T07:04:44.487Z,55.03
2022-09-04T07:05:44.480Z,54.13
2022-09-04T07:06:44.470Z,60.86
2022-09-04T07:07:44.468Z,57.99
2022-09-04T07:08:44.459Z,51.16
2022-09-04T07:09:44.444Z,55.77
2022-09-04T07:10:44.441Z,56.96
2022-09-04T07:11:44.435Z,53.69
2022-09-04T07:12:44.430Z,56.98
2022-09-04T07:13:44.426Z,58.37
2022-09-04T07:14:44.410Z,56.78
2022-09-04T07:15:44.468Z,57.37
2022-09-04T07:16:44.405Z,57.45
2022-09-04T07:17:44.379Z,56.09
2022-09-04T07:18:44.388Z,58.30
2022-09-04T07:19:44.365Z,61.75
2022-09-04T07:20:44.361Z,60.38
2022-09-04T07:21:44.355Z,60.36
2022-09-04T07:22:44.358Z,58.79
2022-09-04T07:23:44.332Z,56.60
2022-09-04T07:24:44.330Z,56.10
2022-09-04T07:25:44.318Z,53.45
2022-09-04T07:26:44.309Z,55.39
2022-09-04T07:27:44.316Z,60.43
2022-09-04T07:28:44.295Z,57.22
2022-09-04T07:29:44.292Z,52.52
2022-09-04T07:30:44.278Z,56.33
2022-09-04T07:31:44.333Z,59.08
2022-09-04T07:32:44.267Z,56.82
2022-09-04T07:33:45.253Z,58.21
2022-09-04T07:34:44.241Z,61.27
2022-09-04T07:35:44.241Z,55.71
2022-09-04T07:36:44.235Z,57.89
2022-09-04T07:37:44.217Z,61.83
2022-09-04T07:38:44.221Z,60.12
2022-09-04T07:39:45.236Z,60.26
2022-09-04T07:40:44.191Z,60.26
2022-09-04T07:41:44.191Z,57.78
2022-09-04T07:42:44.215Z,58.10
2022-09-04T07:43:44.677Z,56.34
2022-09-04T07:44:44.164Z,54.14
2022-09-04T07:45:44.169Z,59.24
2022-09-04T07:46:44.298Z,57.53
2022-09-04T07:47:44.139Z,58.67
2022-09-04T07:48:44.141Z,57.79
2022-09-04T07:49:44.137Z,58.50
2022-09-04T07:50:44.111Z,58.32
2022-09-04T07:51:44.649Z,57.94
2022-09-04T07:52:44.102Z,58.63
2022-09-04T07:53:44.136Z,58.23
2022-09-04T07:54:44.101Z,59.54
2022-09-04T07:55:44.083Z,59.63
2022-09-04T07:56:44.071Z,60.89
2022-09-04T07:57:44.070Z,59.47
2022-09-04T07:58:44.063Z,58.45
2022-09-04T07:59:44.075Z,59.68
2022-09-04T08:00:44.041Z,59.19
2022-09-04T08:01:44.056Z,56.45
2022-09-04T08:02:44.024Z,53.99
2022-09-04T08:03:54.322Z,57.87
2022-09-04T08:04:45.042Z,56.53
2022-09-04T08:05:44.008Z,59.56
2022-09-04T08:06:44.006Z,58.62
2022-09-04T08:07:43.992Z,58.63
2022-09-04T08:08:44.000Z,57.67
2022-09-04T08:09:43.961Z,61.39
2022-09-04T08:10:43.961Z,57.85
2022-09-04T08:11:43.955Z,57.38
2022-09-04T08:12:43.949Z,57.40
2022-09-04T08:13:43.947Z,54.83
2022-09-04T08:14:43.951Z,56.35
2022-09-04T08:15:43.975Z,59.35
2022-09-04T08:16:43.929Z,55.97
2022-09-04T08:17:43.926Z,55.59
2022-09-04T08:18:43.892Z,59.03
2022-09-04T08:19:43.896Z,59.36
2022-09-04T08:20:43.872Z,61.52
2022-09-04T08:21:43.865Z,61.70
2022-09-04T08:22:43.856Z,62.12
2022-09-04T08:23:43.858Z,56.03
2022-09-04T08:24:43.846Z,56.86
2022-09-04T08:25:43.890Z,57.31
2022-09-04T08:26:43.829Z,55.59
2022-09-04T08:27:44.408Z,53.23
2022-09-04T08:28:46.262Z,59.90
2022-09-04T08:29:44.806Z,58.37
2022-09-04T08:30:43.811Z,59.33
2022-09-04T08:31:43.789Z,54.48
2022-09-04T08:32:43.782Z,56.45
2022-09-04T08:33:43.767Z,59.06
2022-09-04T08:34:44.223Z,60.31
2022-09-04T08:35:43.748Z,57.36
2022-09-04T08:36:43.742Z,57.06
2022-09-04T08:37:43.731Z,52.35
2022-09-04T08:38:43.766Z,53.52
2022-09-04T08:39:43.757Z,58.90
2022-09-04T08:40:43.712Z,56.41
2022-09-04T08:41:43.698Z,57.87
2022-09-04T08:42:43.683Z,58.79
2022-09-04T08:43:43.693Z,54.86
2022-09-04T08:44:43.678Z,51.05
2022-09-04T08:45:43.669Z,58.84
2022-09-04T08:46:43.705Z,57.99
2022-09-04T08:47:43.645Z,56.80
2022-09-04T08:48:43.645Z,60.48
2022-09-04T08:49:43.630Z,60.38
2022-09-04T08:50:43.619Z,60.04
2022-09-04T08:51:43.634Z,60.44
2022-09-04T08:52:43.622Z,60.58
2022-09-04T08:53:43.616Z,57.43
2022-09-04T08:54:43.587Z,56.65
2022-09-04T08:55:43.578Z,58.20
2022-09-04T08:56:43.570Z,55.50
2022-09-04T08:57:43.560Z,60.66
2022-09-04T08:58:47.694Z,58.07
2022-09-04T08:59:44.552Z,55.51
2022-09-04T09:00:43.538Z,61.56
2022-09-04T09:01:43.595Z,58.92
2022-09-04T09:02:43.633Z,60.67
2022-09-04T09:03:43.518Z,65.08
2022-09-04T09:04:43.510Z,59.65
2022-09-04T09:05:43.503Z,61.31
2022-09-04T09:06:43.495Z,57.22
2022-09-04T09:07:43.480Z,54.24
2022-09-04T09:08:43.472Z,59.38
2022-09-04T09:09:43.473Z,59.42
2022-09-04T09:10:43.460Z,58.12
2022-09-04T09:11:43.453Z,58.10
2022-09-04T09:12:43.502Z,59.52
2022-09-04T09:13:43.443Z,58.56
2022-09-04T09:14:43.423Z,56.48
2022-09-04T09:15:43.419Z,59.42
2022-09-04T09:16:43.479Z,58.37
2022-09-04T09:17:43.395Z,57.89
2022-09-04T09:18:44.186Z,61.04
2022-09-04T09:19:43.379Z,62.56
2022-09-04T09:20:43.370Z,60.42
2022-09-04T09:21:43.369Z,61.40
2022-09-04T09:22:43.356Z,59.08
2022-09-04T09:23:43.355Z,56.66
2022-09-04T09:24:43.343Z,57.26
2022-09-04T09:25:44.118Z,60.52
2022-09-04T09:26:44.328Z,57.38
2022-09-04T09:27:43.314Z,59.75
2022-09-04T09:28:43.306Z,56.28
2022-09-04T09:29:43.305Z,58.90
2022-09-04T09:30:43.380Z,60.67
2022-09-04T09:31:43.279Z,60.27
2022-09-04T09:32:43.287Z,59.65
2022-09-04T09:33:43.266Z,60.08
2022-09-04T09:34:43.266Z,58.78
2022-09-04T09:35:43.250Z,59.52
2022-09-04T09:36:43.272Z,61.29
2022-09-04T09:37:43.243Z,62.74
2022-09-04T09:38:43.224Z,57.44
2022-09-04T09:39:43.322Z,58.65
2022-09-04T09:40:43.210Z,61.99
2022-09-04T09:41:43.203Z,58.79
2022-09-04T09:42:43.208Z,58.59
2022-09-04T09:43:43.198Z,57.92
2022-09-04T09:44:43.183Z,58.65
2022-09-04T09:45:43.232Z,56.12
2022-09-04T09:46:43.171Z,58.24
2022-09-04T09:47:43.163Z,59.52
2022-09-04T09:48:43.150Z,59.04
2022-09-04T09:49:43.141Z,60.41
2022-09-04T09:50:43.131Z,57.60
2022-09-04T09:51:43.143Z,58.53
2022-09-04T09:52:43.134Z,60.26
2022-09-04T09:53:47.009Z,56.70
2022-09-04T09:54:44.109Z,58.32
2022-09-04T09:55:43.103Z,61.59
2022-09-04T09:56:46.654Z,58.94
2022-09-04T09:57:44.079Z,59.53
2022-09-04T09:58:43.080Z,57.66
2022-09-04T09:59:43.079Z,56.24
2022-09-04T10:00:43.068Z,59.56
2022-09-04T10:01:43.119Z,61.54
2022-09-04T10:02:43.081Z,59.30
2022-09-04T10:03:43.043Z,59.15
2022-09-04T10:04:43.036Z,58.41
2022-09-04T10:05:43.019Z,57.01
2022-09-04T10:06:43.023Z,60.80
2022-09-04T10:07:43.004Z,59.67
2022-09-04T10:08:43.001Z,60.29
2022-09-04T10:09:43.000Z,60.33
2022-09-04T10:10:43.704Z,60.66
2022-09-04T10:11:42.972Z,58.88
2022-09-04T10:12:42.969Z,59.39
2022-09-04T10:13:42.963Z,58.73
2022-09-04T10:14:42.960Z,59.55
2022-09-04T10:15:42.944Z,58.63
2022-09-04T10:16:42.997Z,62.55
2022-09-04T10:17:42.925Z,58.71
2022-09-04T10:18:42.923Z,60.88
2022-09-04T10:19:42.912Z,61.70
2022-09-04T10:20:42.913Z,62.14
2022-09-04T10:21:42.892Z,62.82
2022-09-04T10:22:42.884Z,63.61
2022-09-04T10:23:42.879Z,62.66
2022-09-04T10:24:42.865Z,60.12
2022-09-04T10:25:42.867Z,60.81
2022-09-04T10:26:42.855Z,58.93
2022-09-04T10:27:44.087Z,58.76
2022-09-04T10:28:43.833Z,61.12
2022-09-04T10:29:42.824Z,58.66
2022-09-04T10:30:42.859Z,60.33
2022-09-04T10:31:42.823Z,58.53
2022-09-04T10:32:42.802Z,57.51
2022-09-04T10:33:42.792Z,62.04
2022-09-04T10:34:42.790Z,59.75
2022-09-04T10:35:42.780Z,57.96
2022-09-04T10:36:42.782Z,61.61
2022-09-04T10:37:42.762Z,60.39
2022-09-04T10:38:42.763Z,58.59
2022-09-04T10:39:42.842Z,59.70
2022-09-04T10:40:45.304Z,58.61
2022-09-04T10:41:44.733Z,58.99
2022-09-04T10:42:42.724Z,57.50
2022-09-04T10:43:42.709Z,58.97
2022-09-04T10:44:42.704Z,59.54
2022-09-04T10:45:42.740Z,62.12
2022-09-04T10:46:42.691Z,60.32
2022-09-04T10:47:42.686Z,57.47
2022-09-04T10:48:42.678Z,59.12
2022-09-04T10:49:42.663Z,59.43
2022-09-04T10:50:42.666Z,57.52
2022-09-04T10:51:42.647Z,60.93
2022-09-04T10:52:42.639Z,62.48
2022-09-04T10:53:42.637Z,62.79
2022-09-04T10:54:42.625Z,60.46
2022-09-04T10:55:42.627Z,60.09
2022-09-04T10:56:42.613Z,60.40
2022-09-04T10:57:42.609Z,60.87
2022-09-04T10:58:42.593Z,59.43
2022-09-04T10:59:42.583Z,58.34
2022-09-04T11:00:42.662Z,60.78
2022-09-04T11:01:42.573Z,60.21
2022-09-04T11:02:42.597Z,61.39
2022-09-04T11:03:42.555Z,61.65
2022-09-04T11:04:42.545Z,60.71
2022-09-04T11:05:43.053Z,63.66
2022-09-04T11:06:42.535Z,63.06
2022-09-04T11:07:42.523Z,61.80
2022-09-04T11:08:42.521Z,61.58
2022-09-04T11:09:43.151Z,61.07
2022-09-04T11:10:42.502Z,57.48
2022-09-04T11:11:42.506Z,58.89
2022-09-04T11:12:43.152Z,62.82
2022-09-04T11:13:42.514Z,60.45
2022-09-04T11:14:42.465Z,59.22
2022-09-04T11:15:42.471Z,62.72
2022-09-04T11:16:42.502Z,57.98
2022-09-04T11:17:42.443Z,58.13
2022-09-04T11:18:42.468Z,59.07
2022-09-04T11:19:43.162Z,61.52
2022-09-04T11:20:42.422Z,63.18
2022-09-04T11:21:42.449Z,61.72
2022-09-04T11:22:42.444Z,61.37
2022-09-04T11:23:42.468Z,58.49
2022-09-04T11:24:42.403Z,59.33
2022-09-04T11:25:42.381Z,60.06
2022-09-04T11:26:42.376Z,59.40
2022-09-04T11:27:42.369Z,61.14
2022-09-04T11:28:42.400Z,59.70
2022-09-04T11:29:42.349Z,58.06
2022-09-04T11:30:47.885Z,59.21
2022-09-04T11:31:43.364Z,60.19
2022-09-04T11:32:42.333Z,59.21
2022-09-04T11:33:42.346Z,60.28
2022-09-04T11:34:42.324Z,58.66
2022-09-04T11:35:43.241Z,60.05
2022-09-04T11:36:42.298Z,61.10
2022-09-04T11:37:42.291Z,60.58
2022-09-04T11:38:42.288Z,59.95
2022-09-04T11:39:42.322Z,60.21
2022-09-04T11:40:42.275Z,59.92
2022-09-04T11:41:42.259Z,61.09
2022-09-04T11:42:42.249Z,59.58
2022-09-04T11:43:42.241Z,61.46
2022-09-04T11:44:42.238Z,60.14
2022-09-04T11:45:42.289Z,61.37
2022-09-04T11:46:42.235Z,57.78
2022-09-04T11:47:42.212Z,61.24
2022-09-04T11:48:42.230Z,60.13
2022-09-04T11:49:42.198Z,61.71
2022-09-04T11:50:42.184Z,60.84
2022-09-04T11:51:42.180Z,66.14
2022-09-04T11:52:42.170Z,60.30
2022-09-04T11:53:42.163Z,60.57
2022-09-04T11:54:42.160Z,60.57
2022-09-04T11:55:42.153Z,59.66
2022-09-04T11:56:42.131Z,61.47
2022-09-04T11:57:43.131Z,62.96
2022-09-04T11:58:42.125Z,59.47
2022-09-04T11:59:42.124Z,58.46
2022-09-04T12:00:42.106Z,59.59
2022-09-04T12:01:47.065Z,60.13
2022-09-04T12:02:44.090Z,62.63
2022-09-04T12:03:42.126Z,61.11
2022-09-04T12:04:42.097Z,61.76
2022-09-04T12:05:42.064Z,60.77
2022-09-04T12:06:42.066Z,61.95
2022-09-04T12:07:43.453Z,59.53
2022-09-04T12:08:43.051Z,60.44
2022-09-04T12:09:42.045Z,61.20
2022-09-04T12:10:42.027Z,59.08
2022-09-04T12:11:42.642Z,60.65
2022-09-04T12:12:42.011Z,60.46
2022-09-04T12:13:42.021Z,59.89
2022-09-04T12:14:42.008Z,59.10
2022-09-04T12:15:41.984Z,64.20
2022-09-04T12:16:42.026Z,60.39
2022-09-04T12:17:41.969Z,61.07
2022-09-04T12:18:41.960Z,61.31
2022-09-04T12:19:41.977Z,61.09
2022-09-04T12:20:41.960Z,67.34
2022-09-04T12:21:41.966Z,66.78
2022-09-04T12:22:41.940Z,63.02
2022-09-04T12:23:41.980Z,63.70
2022-09-04T12:24:41.925Z,60.71
2022-09-04T12:25:41.947Z,60.08
2022-09-04T12:26:51.726Z,60.77
2022-09-04T12:27:42.892Z,60.28
2022-09-04T12:28:41.884Z,58.43
2022-09-04T12:29:42.766Z,58.76
2022-09-04T12:30:41.873Z,66.85
2022-09-04T12:31:41.911Z,61.09
2022-09-04T12:32:41.854Z,60.49
2022-09-04T12:33:41.887Z,60.76
2022-09-04T12:34:41.836Z,63.41
2022-09-04T12:35:41.836Z,62.75
2022-09-04T12:36:41.828Z,61.77
2022-09-04T12:37:42.693Z,59.49
2022-09-04T12:38:41.814Z,60.39
2022-09-04T12:39:41.885Z,58.87
2022-09-04T12:40:41.809Z,57.36
2022-09-04T12:41:41.789Z,60.23
2022-09-04T12:42:41.789Z,59.88
2022-09-04T12:43:41.777Z,58.05
2022-09-04T12:44:41.768Z,60.00
2022-09-04T12:45:41.803Z,60.48
2022-09-04T12:46:41.753Z,59.42
2022-09-04T12:47:41.738Z,58.29
2022-09-04T12:48:41.737Z,58.20
2022-09-04T12:49:41.736Z,58.88
2022-09-04T12:50:42.278Z,57.95
2022-09-04T12:51:41.708Z,60.26
2022-09-04T12:52:41.696Z,61.25
2022-09-04T12:53:41.702Z,62.83
2022-09-04T12:54:41.686Z,64.02